createdAt,value
2023-07-20T00:01:01.158Z,25.2
2023-07-20T00:02:15.452Z,25.2
2023-07-20T00:03:29.745Z,25.2
2023-07-20T00:04:44.000Z,25.2
2023-07-20T00:05:58.331Z,25.2
2023-07-20T00:07:12.624Z,25.2
2023-07-20T00:08:26.918Z,25.2
2023-07-20T00:09:40.227Z,25.2
2023-07-20T00:10:54.501Z,25.2
2023-07-20T00:12:08.813Z,25.2
2023-07-20T00:13:23.106Z,25.2
2023-07-20T00:14:37.399Z,25.2
2023-07-20T00:15:51.000Z,25.2
2023-07-20T00:17:05.985Z,25.2
2023-07-20T00:18:20.278Z,25.2
2023-07-20T00:19:34.571Z,25.2
2023-07-20T00:20:48.864Z,25.2
2023-07-20T00:22:03.000Z,25.2
2023-07-20T00:23:17.450Z,25.2
2023-07-20T00:24:31.744Z,25.2
2023-07-20T00:25:45.053Z,25.2
2023-07-20T00:26:59.000Z,25.2
2023-07-20T00:28:13.639Z,25.2
2023-07-20T00:29:27.000Z,25.2
2023-07-20T00:30:42.000Z,25.2
2023-07-20T00:31:56.496Z,25.2
2023-07-20T00:33:10.000Z,25.2
2023-07-20T00:34:25.000Z,25.1
2023-07-20T00:35:39.398Z,25.2
2023-07-20T00:36:53.000Z,25.1
2023-07-20T00:38:07.000Z,25.1
2023-07-20T00:39:22.000Z,25.2
2023-07-20T00:40:36.570Z,25.2
2023-07-20T00:41:49.000Z,25.1
2023-07-20T00:43:04.000Z,25.1
2023-07-20T00:44:18.000Z,25.1
2023-07-20T00:45:32.758Z,25.2
2023-07-20T00:46:47.000Z,25.1
2023-07-20T00:48:01.000Z,25.1
2023-07-20T00:49:15.637Z,25.1
2023-07-20T00:50:30.000Z,25.1
2023-07-20T00:51:44.223Z,25.1
2023-07-20T00:52:58.516Z,25.1
2023-07-20T00:54:12.809Z,25.1
2023-07-20T00:55:27.000Z,25.1
2023-07-20T00:56:41.395Z,25.1
2023-07-20T00:57:54.000Z,25.1
2023-07-20T00:59:08.000Z,25.1
2023-07-20T01:00:23.291Z,25.1
2023-07-20T01:01:37.584Z,25.1
2023-07-20T01:02:51.000Z,25.1
2023-07-20T01:04:06.170Z,25.1
2023-07-20T01:05:20.463Z,25.1
2023-07-20T01:06:34.755Z,25.1
2023-07-20T01:07:49.049Z,25.1
2023-07-20T01:09:03.342Z,25.1
2023-07-20T01:10:17.635Z,25.1
2023-07-20T01:11:31.928Z,25.1
2023-07-20T01:12:46.221Z,25.1
2023-07-20T01:13:59.530Z,25.1
2023-07-20T01:15:13.823Z,25.1
2023-07-20T01:16:28.116Z,25.1
2023-07-20T01:17:42.409Z,25.1
2023-07-20T01:18:56.702Z,25.1
2023-07-20T01:20:10.000Z,25.1
2023-07-20T01:21:25.000Z,25.1
2023-07-20T01:22:39.000Z,25.1
2023-07-20T01:23:53.000Z,25.1
2023-07-20T01:25:08.000Z,25.1
2023-07-20T01:26:22.000Z,25.1
2023-07-20T01:27:36.000Z,25.1
2023-07-20T01:28:51.000Z,25.1
2023-07-20T01:30:04.000Z,25.1
2023-07-20T01:31:18.000Z,25.1
2023-07-20T01:32:32.929Z,25.1
2023-07-20T01:33:47.000Z,25
2023-07-20T01:35:01.000Z,25.1
2023-07-20T01:36:15.797Z,25.1
2023-07-20T01:37:30.115Z,25.1
2023-07-20T01:38:44.407Z,25.1
2023-07-20T01:39:58.000Z,25
2023-07-20T01:41:12.994Z,25
2023-07-20T01:42:27.287Z,25
2023-07-20T01:43:41.580Z,25.1
2023-07-20T01:44:55.873Z,25
2023-07-20T01:46:09.182Z,25
2023-07-20T01:47:23.475Z,25
2023-07-20T01:48:37.768Z,25
2023-07-20T01:49:52.061Z,25
2023-07-20T01:51:06.354Z,25
2023-07-20T01:52:20.647Z,25
2023-07-20T01:53:34.940Z,25
2023-07-20T01:54:49.233Z,25
2023-07-20T01:56:03.526Z,25
2023-07-20T01:57:17.819Z,25
2023-07-20T01:58:32.112Z,25
2023-07-20T01:59:46.405Z,25
2023-07-20T02:01:00.698Z,25
2023-07-20T02:02:14.007Z,25
2023-07-20T02:03:28.300Z,25
2023-07-20T02:04:42.593Z,25
2023-07-20T02:05:56.886Z,25
2023-07-20T02:07:11.179Z,25
2023-07-20T02:08:25.472Z,25
2023-07-20T02:09:39.765Z,25
2023-07-20T02:10:54.058Z,25
2023-07-20T02:12:08.352Z,25
2023-07-20T02:13:22.645Z,25
2023-07-20T02:14:36.938Z,25
2023-07-20T02:15:51.231Z,25
2023-07-20T02:17:05.524Z,25
2023-07-20T02:18:18.833Z,25
2023-07-20T02:19:33.126Z,25
2023-07-20T02:20:47.419Z,25
2023-07-20T02:22:01.712Z,25
2023-07-20T02:23:16.006Z,25
2023-07-20T02:24:30.294Z,25
2023-07-20T02:25:43.614Z,25
2023-07-20T02:26:57.906Z,25
2023-07-20T02:28:12.200Z,25
2023-07-20T02:29:26.493Z,25
2023-07-20T02:30:40.786Z,25
2023-07-20T02:31:55.078Z,25
2023-07-20T02:33:09.349Z,25
2023-07-20T02:34:23.665Z,25
2023-07-20T02:35:37.958Z,25
2023-07-20T02:36:52.000Z,25
2023-07-20T02:38:06.544Z,25
2023-07-20T02:39:20.837Z,25
2023-07-20T02:40:35.130Z,25
2023-07-20T02:41:48.000Z,25
2023-07-20T02:43:02.000Z,25
2023-07-20T02:44:17.025Z,25
2023-07-20T02:45:31.319Z,25
2023-07-20T02:46:45.612Z,24.9
2023-07-20T02:47:59.905Z,25
2023-07-20T02:49:14.198Z,25
2023-07-20T02:50:28.491Z,24.9
2023-07-20T02:51:42.784Z,24.9
2023-07-20T02:52:57.077Z,25
2023-07-20T02:54:11.371Z,25
2023-07-20T02:55:25.664Z,24.9
2023-07-20T02:56:39.000Z,25
2023-07-20T02:57:53.000Z,25
2023-07-20T02:59:07.000Z,24.9
2023-07-20T03:00:21.000Z,25
2023-07-20T03:01:36.145Z,24.9
2023-07-20T03:02:50.438Z,25
2023-07-20T03:04:04.731Z,24.9
2023-07-20T03:05:19.024Z,24.9
2023-07-20T03:06:33.317Z,24.9
2023-07-20T03:07:47.610Z,24.9
2023-07-20T03:09:01.902Z,24.9
2023-07-20T03:10:16.195Z,24.9
2023-07-20T03:11:30.488Z,24.9
2023-07-20T03:12:44.781Z,24.9
2023-07-20T03:13:58.090Z,24.9
2023-07-20T03:15:12.383Z,24.9
2023-07-20T03:16:26.676Z,24.9
2023-07-20T03:17:40.969Z,24.9
2023-07-20T03:18:55.262Z,24.9
2023-07-20T03:20:09.000Z,24.9
2023-07-20T03:21:23.000Z,24.9
2023-07-20T03:22:38.141Z,24.9
2023-07-20T03:23:52.435Z,24.9
2023-07-20T03:25:06.728Z,24.9
2023-07-20T03:26:21.020Z,24.9
2023-07-20T03:27:35.313Z,24.9
2023-07-20T03:28:49.606Z,24.9
2023-07-20T03:30:02.915Z,24.9
2023-07-20T03:31:17.208Z,24.9
2023-07-20T03:32:31.501Z,24.9
2023-07-20T03:33:45.794Z,24.9
2023-07-20T03:35:00.087Z,24.9
2023-07-20T03:36:14.379Z,24.9
2023-07-20T03:37:28.629Z,24.9
2023-07-20T03:38:42.868Z,24.9
2023-07-20T03:39:57.107Z,24.9
2023-07-20T03:41:11.345Z,24.9
2023-07-20T03:42:26.000Z,24.9
2023-07-20T03:43:39.000Z,24.9
2023-07-20T03:44:54.000Z,24.9
2023-07-20T03:46:07.000Z,24.9
2023-07-20T03:47:21.554Z,24.9
2023-07-20T03:48:35.000Z,24.9
2023-07-20T03:49:50.000Z,24.9
2023-07-20T03:51:04.270Z,24.9
2023-07-20T03:52:18.509Z,24.9
2023-07-20T03:53:32.747Z,24.9
2023-07-20T03:54:46.986Z,24.9
2023-07-20T03:56:01.225Z,24.9
2023-07-20T03:57:15.463Z,24.9
2023-07-20T03:58:29.756Z,24.9
2023-07-20T03:59:43.995Z,24.9
2023-07-20T04:00:58.234Z,24.9
2023-07-20T04:02:11.489Z,24.9
2023-07-20T04:03:25.727Z,24.9
2023-07-20T04:04:39.966Z,24.8
2023-07-20T04:05:54.205Z,24.9
2023-07-20T04:07:08.443Z,24.9
2023-07-20T04:08:22.682Z,24.9
2023-07-20T04:09:36.921Z,24.9
2023-07-20T04:10:51.000Z,24.8
2023-07-20T04:12:05.398Z,24.9
2023-07-20T04:13:19.637Z,24.9
2023-07-20T04:14:33.876Z,24.9
2023-07-20T04:15:48.000Z,24.8
2023-07-20T04:17:02.353Z,24.8
2023-07-20T04:18:15.608Z,24.8
2023-07-20T04:19:29.846Z,24.9
2023-07-20T04:20:44.085Z,24.8
2023-07-20T04:21:58.324Z,24.9
2023-07-20T04:23:12.000Z,24.8
2023-07-20T04:24:26.801Z,24.8
2023-07-20T04:25:41.040Z,24.8
2023-07-20T04:26:55.279Z,24.8
2023-07-20T04:28:09.517Z,24.9
2023-07-20T04:29:23.756Z,24.8
2023-07-20T04:30:37.000Z,24.8
2023-07-20T04:31:52.234Z,24.8
2023-07-20T04:33:06.472Z,24.8
2023-07-20T04:34:19.727Z,24.8
2023-07-20T04:35:33.966Z,24.8
2023-07-20T04:36:48.204Z,24.8
2023-07-20T04:38:02.443Z,24.8
2023-07-20T04:39:16.682Z,24.8
2023-07-20T04:40:30.920Z,24.8
2023-07-20T04:41:45.000Z,24.8
2023-07-20T04:42:59.398Z,24.8
2023-07-20T04:44:13.637Z,24.8
2023-07-20T04:45:27.876Z,24.8
2023-07-20T04:46:42.114Z,24.8
2023-07-20T04:47:56.353Z,24.8
2023-07-20T04:49:10.000Z,24.8
2023-07-20T04:50:23.846Z,24.8
2023-07-20T04:51:38.085Z,24.8
2023-07-20T04:52:52.324Z,24.8
2023-07-20T04:54:06.563Z,24.8
2023-07-20T04:55:20.801Z,24.8
2023-07-20T04:56:35.040Z,24.8
2023-07-20T04:57:49.279Z,24.8
2023-07-20T04:59:03.517Z,24.8
2023-07-20T05:00:17.756Z,24.8
2023-07-20T05:01:31.994Z,24.8
2023-07-20T05:02:46.233Z,24.8
2023-07-20T05:04:00.472Z,24.8
2023-07-20T05:05:14.711Z,24.8
2023-07-20T05:06:27.965Z,24.8
2023-07-20T05:07:42.204Z,24.8
2023-07-20T05:08:56.443Z,24.8
2023-07-20T05:10:10.682Z,24.8
2023-07-20T05:11:24.921Z,24.8
2023-07-20T05:12:39.160Z,24.8
2023-07-20T05:13:53.372Z,24.8
2023-07-20T05:15:07.637Z,24.8
2023-07-20T05:16:21.876Z,24.8
2023-07-20T05:17:36.114Z,24.8
2023-07-20T05:18:50.353Z,24.8
2023-07-20T05:20:04.592Z,24.8
2023-07-20T05:21:18.831Z,24.8
2023-07-20T05:22:32.085Z,24.8
2023-07-20T05:23:46.324Z,24.8
2023-07-20T05:25:00.562Z,24.8
2023-07-20T05:26:14.801Z,24.8
2023-07-20T05:27:29.040Z,24.8
2023-07-20T05:28:43.000Z,24.8
2023-07-20T05:29:57.517Z,24.8
2023-07-20T05:31:11.756Z,24.8
2023-07-20T05:32:25.994Z,24.8
2023-07-20T05:33:40.233Z,24.8
2023-07-20T05:34:54.471Z,24.8
2023-07-20T05:36:08.710Z,24.8
2023-07-20T05:37:22.949Z,24.8
2023-07-20T05:38:36.000Z,24.8
2023-07-20T05:39:50.443Z,24.8
2023-07-20T05:41:04.681Z,24.8
2023-07-20T05:42:18.920Z,24.8
2023-07-20T05:43:33.136Z,24.8
2023-07-20T05:44:47.397Z,24.8
2023-07-20T05:46:01.636Z,24.8
2023-07-20T05:47:15.875Z,24.8
2023-07-20T05:48:30.113Z,24.8
2023-07-20T05:49:45.000Z,24.8
2023-07-20T05:50:58.591Z,24.8
2023-07-20T05:52:12.829Z,24.8
2023-07-20T05:53:27.068Z,24.8
2023-07-20T05:54:40.322Z,24.8
2023-07-20T05:55:54.561Z,24.8
2023-07-20T05:57:08.800Z,24.8
2023-07-20T05:58:23.000Z,24.8
2023-07-20T05:59:37.277Z,24.8
2023-07-20T06:00:51.516Z,24.8
2023-07-20T06:02:05.755Z,24.8
2023-07-20T06:03:19.993Z,24.8
2023-07-20T06:04:34.232Z,24.8
2023-07-20T06:05:49.471Z,24.8
2023-07-20T06:07:02.000Z,24.8
2023-07-20T06:08:16.926Z,24.8
2023-07-20T06:09:31.000Z,24.8
2023-07-20T06:10:44.000Z,24.8
2023-07-20T06:11:58.680Z,24.8
2023-07-20T06:13:12.918Z,24.8
2023-07-20T06:14:27.157Z,24.8
2023-07-20T06:15:41.396Z,24.8
2023-07-20T06:16:55.635Z,24.8
2023-07-20T06:18:09.873Z,24.8
2023-07-20T06:19:24.112Z,24.8
2023-07-20T06:20:38.000Z,24.8
2023-07-20T06:21:52.000Z,24.8
2023-07-20T06:23:06.000Z,24.8
2023-07-20T06:24:21.066Z,24.8
2023-07-20T06:25:35.000Z,24.8
2023-07-20T06:26:48.000Z,24.8
2023-07-20T06:28:02.000Z,24.8
2023-07-20T06:29:17.000Z,24.8
2023-07-20T06:30:31.276Z,24.8
2023-07-20T06:31:45.514Z,24.8
2023-07-20T06:32:59.753Z,24.8
2023-07-20T06:34:13.013Z,24.8
2023-07-20T06:35:27.252Z,24.8
2023-07-20T06:36:41.000Z,24.8
2023-07-20T06:37:55.000Z,24.8
2023-07-20T06:39:09.967Z,24.8
2023-07-20T06:40:24.000Z,24.8
2023-07-20T06:41:38.000Z,24.8
2023-07-20T06:42:52.000Z,24.8
2023-07-20T06:44:06.000Z,24.8
2023-07-20T06:45:21.000Z,24.8
2023-07-20T06:46:35.000Z,24.8
2023-07-20T06:47:49.000Z,24.9
2023-07-20T06:49:03.000Z,24.8
2023-07-20T06:50:17.000Z,24.8
2023-07-20T06:51:31.000Z,24.9
2023-07-20T06:52:45.000Z,24.8
2023-07-20T06:53:59.000Z,24.9
2023-07-20T06:55:14.000Z,24.8
2023-07-20T06:56:28.000Z,24.8
2023-07-20T06:57:42.564Z,24.9
2023-07-20T06:58:56.803Z,24.9
2023-07-20T07:00:11.000Z,24.8
2023-07-20T07:01:25.280Z,24.9
2023-07-20T07:02:39.519Z,24.8
2023-07-20T07:03:53.757Z,24.9
2023-07-20T07:05:07.997Z,24.8
2023-07-20T07:06:21.252Z,24.8
2023-07-20T07:07:35.000Z,24.9
2023-07-20T07:08:49.000Z,24.9
2023-07-20T07:10:03.000Z,24.9
2023-07-20T07:11:18.000Z,24.8
2023-07-20T07:12:32.000Z,24.8
2023-07-20T07:13:46.000Z,24.8
2023-07-20T07:15:00.000Z,24.9
2023-07-20T07:16:15.000Z,24.9
2023-07-20T07:17:29.000Z,24.8
2023-07-20T07:18:43.000Z,24.9
2023-07-20T07:19:57.000Z,24.9
2023-07-20T07:21:12.000Z,24.9
2023-07-20T07:22:25.000Z,24.9
2023-07-20T07:23:39.000Z,24.9
2023-07-20T07:24:53.849Z,24.8
2023-07-20T07:26:08.088Z,24.9
2023-07-20T07:27:22.000Z,24.9
2023-07-20T07:28:36.000Z,24.9
2023-07-20T07:29:50.000Z,24.9
2023-07-20T07:31:05.000Z,24.9
2023-07-20T07:32:19.000Z,24.9
2023-07-20T07:33:33.000Z,24.9
2023-07-20T07:34:47.000Z,24.9
2023-07-20T07:36:01.000Z,24.9
2023-07-20T07:37:16.236Z,24.9
2023-07-20T07:38:29.491Z,24.9
2023-07-20T07:39:43.000Z,24.9
2023-07-20T07:40:57.968Z,24.9
2023-07-20T07:42:12.206Z,24.9
2023-07-20T07:43:26.445Z,24.9
2023-07-20T07:44:40.684Z,24.9
2023-07-20T07:45:54.923Z,24.9
2023-07-20T07:47:09.139Z,24.9
2023-07-20T07:48:23.400Z,24.9
2023-07-20T07:49:37.639Z,24.9
2023-07-20T07:50:51.878Z,24.9
2023-07-20T07:52:06.116Z,24.9
2023-07-20T07:53:20.355Z,24.9
2023-07-20T07:54:33.610Z,24.9
2023-07-20T07:55:47.848Z,24.9
2023-07-20T07:57:02.087Z,24.9
2023-07-20T07:58:16.326Z,24.9
2023-07-20T07:59:30.564Z,24.9
2023-07-20T08:00:44.803Z,24.9
2023-07-20T08:01:59.042Z,24.9
2023-07-20T08:03:13.281Z,24.9
2023-07-20T08:04:27.519Z,24.9
2023-07-20T08:05:41.758Z,24.9
2023-07-20T08:06:55.997Z,24.9
2023-07-20T08:08:10.236Z,24.9
2023-07-20T08:09:24.474Z,24.9
2023-07-20T08:10:37.729Z,24.9
2023-07-20T08:11:51.000Z,24.9
2023-07-20T08:13:06.206Z,24.9
2023-07-20T08:14:20.445Z,24.9
2023-07-20T08:15:34.683Z,24.9
2023-07-20T08:16:48.922Z,24.9
2023-07-20T08:18:03.161Z,24.9
2023-07-20T08:19:17.399Z,24.9
2023-07-20T08:20:31.638Z,24.9
2023-07-20T08:21:45.876Z,24.9
2023-07-20T08:23:00.115Z,24.9
2023-07-20T08:24:14.353Z,24.9
2023-07-20T08:25:28.592Z,24.9
2023-07-20T08:26:41.847Z,24.9
2023-07-20T08:27:56.086Z,24.9
2023-07-20T08:29:10.325Z,24.9
2023-07-20T08:30:24.563Z,24.9
2023-07-20T08:31:38.802Z,24.9
2023-07-20T08:32:53.040Z,24.9
2023-07-20T08:34:07.279Z,24.9
2023-07-20T08:35:21.518Z,24.9
2023-07-20T08:36:35.758Z,24.9
2023-07-20T08:37:49.996Z,24.9
2023-07-20T08:39:04.000Z,24.9
2023-07-20T08:40:18.448Z,24.9
2023-07-20T08:41:32.712Z,24.9
2023-07-20T08:42:45.967Z,24.9
2023-07-20T08:44:00.205Z,24.9
2023-07-20T08:45:14.444Z,24.9
2023-07-20T08:46:28.683Z,24.9
2023-07-20T08:47:42.922Z,24.9
2023-07-20T08:48:57.160Z,25
2023-07-20T08:50:11.399Z,24.9
2023-07-20T08:51:25.638Z,24.9
2023-07-20T08:52:39.877Z,25
2023-07-20T08:53:54.115Z,25
2023-07-20T08:55:08.354Z,24.9
2023-07-20T08:56:22.000Z,24.9
2023-07-20T08:57:36.832Z,24.9
2023-07-20T08:58:50.000Z,24.9
2023-07-20T09:00:04.325Z,24.9
2023-07-20T09:01:18.564Z,24.9
2023-07-20T09:02:32.802Z,24.9
2023-07-20T09:03:47.041Z,24.9
2023-07-20T09:05:01.280Z,24.9
2023-07-20T09:06:15.519Z,24.9
2023-07-20T09:07:29.757Z,24.9
2023-07-20T09:08:43.996Z,24.9
2023-07-20T09:09:58.235Z,24.9
2023-07-20T09:11:12.474Z,24.9
2023-07-20T09:12:26.000Z,24.9
2023-07-20T09:13:40.000Z,24.9
2023-07-20T09:14:54.205Z,25
2023-07-20T09:16:08.444Z,24.9
2023-07-20T09:17:22.683Z,25
2023-07-20T09:18:36.921Z,25
2023-07-20T09:19:51.134Z,25
2023-07-20T09:21:05.399Z,25
2023-07-20T09:22:19.638Z,25
2023-07-20T09:23:33.876Z,25
2023-07-20T09:24:48.115Z,25
2023-07-20T09:26:02.353Z,25
2023-07-20T09:27:16.592Z,25
2023-07-20T09:28:30.000Z,25
2023-07-20T09:29:45.069Z,25
2023-07-20T09:30:58.000Z,25
2023-07-20T09:32:12.000Z,25
2023-07-20T09:33:26.000Z,25
2023-07-20T09:34:41.000Z,25
2023-07-20T09:35:55.000Z,25
2023-07-20T09:37:09.000Z,25
2023-07-20T09:38:23.000Z,25
2023-07-20T09:39:38.000Z,25
2023-07-20T09:40:52.000Z,25
2023-07-20T09:42:06.000Z,25
2023-07-20T09:43:20.000Z,25
2023-07-20T09:44:34.000Z,25
2023-07-20T09:45:49.000Z,25
2023-07-20T09:47:02.000Z,25
2023-07-20T09:48:16.000Z,25
2023-07-20T09:49:30.000Z,25
2023-07-20T09:50:45.161Z,25
2023-07-20T09:51:59.401Z,25
2023-07-20T09:53:13.639Z,25
2023-07-20T09:54:27.878Z,24.9
2023-07-20T09:55:42.117Z,25
2023-07-20T09:56:56.356Z,25
2023-07-20T09:58:10.594Z,25
2023-07-20T09:59:24.833Z,25
2023-07-20T10:00:39.072Z,25
2023-07-20T10:01:53.000Z,25
2023-07-20T10:03:06.544Z,24.9
2023-07-20T10:04:20.000Z,25
2023-07-20T10:05:35.000Z,25
2023-07-20T10:06:49.282Z,25
2023-07-20T10:08:03.521Z,25
2023-07-20T10:09:17.759Z,24.9
2023-07-20T10:10:31.998Z,24.9
2023-07-20T10:11:46.000Z,24.9
2023-07-20T10:13:00.000Z,24.9
2023-07-20T10:14:14.000Z,24.9
2023-07-20T10:15:28.000Z,24.9
2023-07-20T10:16:43.000Z,24.9
2023-07-20T10:17:57.000Z,24.9
2023-07-20T10:19:10.000Z,24.9
2023-07-20T10:20:24.000Z,24.9
2023-07-20T10:21:39.000Z,24.9
2023-07-20T10:22:53.000Z,25
2023-07-20T10:24:07.640Z,24.9
2023-07-20T10:25:21.879Z,24.9
2023-07-20T10:26:36.000Z,24.9
2023-07-20T10:27:50.000Z,24.9
2023-07-20T10:29:04.595Z,24.9
2023-07-20T10:30:18.834Z,25
2023-07-20T10:31:33.000Z,24.9
2023-07-20T10:32:47.000Z,25
2023-07-20T10:34:01.000Z,25
2023-07-20T10:35:14.000Z,24.9
2023-07-20T10:36:29.000Z,25
2023-07-20T10:37:43.000Z,25
2023-07-20T10:38:57.521Z,25
2023-07-20T10:40:11.000Z,25
2023-07-20T10:41:25.000Z,25
2023-07-20T10:42:39.236Z,25
2023-07-20T10:43:53.497Z,24.9
2023-07-20T10:45:07.735Z,25
2023-07-20T10:46:21.974Z,25
2023-07-20T10:47:36.213Z,25
2023-07-20T10:48:50.452Z,25
2023-07-20T10:50:04.690Z,25
2023-07-20T10:51:18.929Z,25
2023-07-20T10:52:33.168Z,25
2023-07-20T10:53:47.406Z,25
2023-07-20T10:55:01.000Z,25
2023-07-20T10:56:15.000Z,25
2023-07-20T10:57:30.122Z,25
2023-07-20T10:58:43.377Z,25
2023-07-20T10:59:57.000Z,25
2023-07-20T11:01:12.000Z,25
2023-07-20T11:02:26.093Z,25
2023-07-20T11:03:40.000Z,25
2023-07-20T11:04:54.000Z,25
2023-07-20T11:06:08.000Z,25
2023-07-20T11:07:23.000Z,25
2023-07-20T11:08:37.000Z,25
2023-07-20T11:09:51.000Z,25
2023-07-20T11:11:05.000Z,25
2023-07-20T11:12:20.000Z,25
2023-07-20T11:13:34.000Z,25
2023-07-20T11:14:47.000Z,25
2023-07-20T11:16:01.000Z,25
2023-07-20T11:17:15.000Z,25
2023-07-20T11:18:30.000Z,25
2023-07-20T11:19:44.000Z,25
2023-07-20T11:20:58.000Z,25
2023-07-20T11:22:12.000Z,25
2023-07-20T11:23:27.000Z,25
2023-07-20T11:24:41.000Z,25
2023-07-20T11:25:55.000Z,25.1
2023-07-20T11:27:09.000Z,25
2023-07-20T11:28:24.000Z,25.1
2023-07-20T11:29:38.358Z,25
2023-07-20T11:30:51.000Z,25.1
2023-07-20T11:32:05.000Z,25.1
2023-07-20T11:33:20.000Z,25.1
2023-07-20T11:34:34.329Z,25.1
2023-07-20T11:35:48.567Z,25.1
2023-07-20T11:37:02.806Z,25.1
2023-07-20T11:38:17.044Z,25.1
2023-07-20T11:39:31.282Z,25.1
2023-07-20T11:40:45.521Z,25.1
2023-07-20T11:41:59.000Z,25.1
2023-07-20T11:43:13.999Z,25.1
2023-07-20T11:44:28.000Z,25.1
2023-07-20T11:45:42.000Z,25.1
2023-07-20T11:46:55.000Z,25.1
2023-07-20T11:48:09.000Z,25.1
2023-07-20T11:49:24.000Z,25.1
2023-07-20T11:50:38.447Z,25.1
2023-07-20T11:51:52.662Z,25.1
2023-07-20T11:53:06.000Z,25.1
2023-07-20T11:54:21.000Z,25.1
2023-07-20T11:55:35.000Z,25.1
2023-07-20T11:56:49.000Z,25.1
2023-07-20T11:58:03.879Z,25.1
2023-07-20T11:59:18.118Z,25.1
2023-07-20T12:00:32.356Z,25.1
2023-07-20T12:01:46.000Z,25.1
2023-07-20T12:02:59.850Z,25.1
2023-07-20T12:04:14.000Z,25.1
2023-07-20T12:05:28.000Z,25.1
2023-07-20T12:06:42.000Z,25.1
2023-07-20T12:07:56.000Z,25.1
2023-07-20T12:09:11.000Z,25.1
2023-07-20T12:10:25.000Z,25.1
2023-07-20T12:11:39.520Z,25.1
2023-07-20T12:12:53.759Z,25.1
2023-07-20T12:14:07.000Z,25.1
2023-07-20T12:15:22.236Z,25.1
2023-07-20T12:16:36.475Z,25.1
2023-07-20T12:17:50.000Z,25.1
2023-07-20T12:19:03.000Z,25.1
2023-07-20T12:20:18.206Z,25.1
2023-07-20T12:21:32.445Z,25.1
2023-07-20T12:22:46.683Z,25.1
2023-07-20T12:24:00.922Z,25.2
2023-07-20T12:25:15.161Z,25.1
2023-07-20T12:26:29.400Z,25.1
2023-07-20T12:27:43.638Z,25.1
2023-07-20T12:28:57.877Z,25.1
2023-07-20T12:30:12.000Z,25.1
2023-07-20T12:31:26.354Z,25.2
2023-07-20T12:32:40.594Z,25.1
2023-07-20T12:33:54.000Z,25.1
2023-07-20T12:35:08.000Z,25.1
2023-07-20T12:36:22.000Z,25.2
2023-07-20T12:37:36.000Z,25.1
2023-07-20T12:38:50.805Z,25.1
2023-07-20T12:40:05.000Z,25.1
2023-07-20T12:41:19.282Z,25.2
2023-07-20T12:42:33.521Z,25.2
2023-07-20T12:43:47.759Z,25.2
2023-07-20T12:45:01.998Z,25.2
2023-07-20T12:46:16.000Z,25.2
2023-07-20T12:47:30.000Z,25.2
2023-07-20T12:48:44.000Z,25.2
2023-07-20T12:49:58.000Z,25.2
2023-07-20T12:51:12.000Z,25.2
2023-07-20T12:52:26.000Z,25.2
2023-07-20T12:53:40.685Z,25.2
2023-07-20T12:54:54.000Z,25.2
2023-07-20T12:56:09.162Z,25.2
2023-07-20T12:57:23.401Z,25.2
2023-07-20T12:58:37.000Z,25.2
2023-07-20T12:59:51.000Z,25.2
2023-07-20T13:01:06.000Z,25.2
2023-07-20T13:02:20.334Z,25.2
2023-07-20T13:03:34.000Z,25.2
2023-07-20T13:04:48.833Z,25.2
2023-07-20T13:06:03.072Z,25.3
2023-07-20T13:07:16.000Z,25.3
2023-07-20T13:08:30.565Z,25.3
2023-07-20T13:09:44.804Z,25.3
2023-07-20T13:10:59.000Z,25.3
2023-07-20T13:12:13.000Z,25.3
2023-07-20T13:13:27.000Z,25.3
2023-07-20T13:14:41.000Z,25.3
2023-07-20T13:15:55.000Z,25.4
2023-07-20T13:17:10.000Z,25.4
2023-07-20T13:18:24.000Z,25.4
2023-07-20T13:19:38.000Z,25.4
2023-07-20T13:20:52.000Z,25.4
2023-07-20T13:22:07.000Z,25.4
2023-07-20T13:23:20.000Z,25.4
2023-07-20T13:24:34.000Z,25.5
2023-07-20T13:25:48.000Z,25.4
2023-07-20T13:27:03.000Z,25.4
2023-07-20T13:28:17.000Z,25.4
2023-07-20T13:29:31.638Z,25.4
2023-07-20T13:30:45.876Z,25.4
2023-07-20T13:32:00.115Z,25.4
2023-07-20T13:33:14.353Z,25.5
2023-07-20T13:34:28.592Z,25.5
2023-07-20T13:35:42.830Z,25.5
2023-07-20T13:36:57.069Z,25.5
2023-07-20T13:38:11.308Z,25.5
2023-07-20T13:39:24.562Z,25.5
2023-07-20T13:40:38.801Z,25.5
2023-07-20T13:41:53.040Z,25.5
2023-07-20T13:43:07.000Z,25.5
2023-07-20T13:44:21.517Z,25.5
2023-07-20T13:45:35.000Z,25.5
2023-07-20T13:46:49.995Z,25.5
2023-07-20T13:48:04.233Z,25.5
2023-07-20T13:49:18.472Z,25.5
2023-07-20T13:50:32.000Z,25.5
2023-07-20T13:51:46.000Z,25.5
2023-07-20T13:53:01.000Z,25.6
2023-07-20T13:54:15.000Z,25.6
2023-07-20T13:55:28.681Z,25.5
2023-07-20T13:56:42.000Z,25.5
2023-07-20T13:57:57.000Z,25.6
2023-07-20T13:59:11.397Z,25.6
2023-07-20T14:00:25.636Z,25.5
2023-07-20T14:01:39.875Z,25.5
2023-07-20T14:02:54.113Z,25.5
2023-07-20T14:04:08.000Z,25.5
2023-07-20T14:05:22.591Z,25.5
2023-07-20T14:06:36.000Z,25.5
2023-07-20T14:07:51.000Z,25.5
2023-07-20T14:09:05.307Z,25.5
2023-07-20T14:10:19.000Z,25.5
2023-07-20T14:11:32.800Z,25.5
2023-07-20T14:12:47.039Z,25.5
2023-07-20T14:14:01.277Z,25.5
2023-07-20T14:15:15.516Z,25.5
2023-07-20T14:16:29.755Z,25.6
2023-07-20T14:17:43.000Z,25.5
2023-07-20T14:18:58.000Z,25.6
2023-07-20T14:20:12.000Z,25.5
2023-07-20T14:21:26.000Z,25.6
2023-07-20T14:22:40.000Z,25.6
2023-07-20T14:23:55.000Z,25.6
2023-07-20T14:25:09.411Z,25.6
2023-07-20T14:26:23.000Z,25.6
2023-07-20T14:27:36.000Z,25.6
2023-07-20T14:28:51.000Z,25.6
2023-07-20T14:30:05.379Z,25.6
2023-07-20T14:31:19.634Z,25.6
2023-07-20T14:32:33.872Z,25.6
2023-07-20T14:33:48.112Z,25.6
2023-07-20T14:35:02.322Z,25.6
2023-07-20T14:36:16.589Z,25.6
2023-07-20T14:37:30.828Z,25.6
2023-07-20T14:38:45.000Z,25.7
2023-07-20T14:39:59.000Z,25.7
2023-07-20T14:41:13.000Z,25.7
2023-07-20T14:42:27.000Z,25.7
2023-07-20T14:43:41.000Z,25.7
2023-07-20T14:44:55.000Z,25.8
2023-07-20T14:46:09.000Z,25.8
2023-07-20T14:47:23.000Z,25.8
2023-07-20T14:48:37.000Z,25.8
2023-07-20T14:49:52.000Z,25.8
2023-07-20T14:51:05.000Z,25.8
2023-07-20T14:52:19.000Z,25.9
2023-07-20T14:53:33.000Z,25.9
2023-07-20T14:54:48.000Z,25.9
2023-07-20T14:56:02.000Z,25.9
2023-07-20T14:57:16.000Z,26
2023-07-20T14:58:30.000Z,26
2023-07-20T14:59:45.000Z,26
2023-07-20T15:00:59.000Z,26
2023-07-20T15:02:13.000Z,26
2023-07-20T15:03:27.000Z,26
2023-07-20T15:04:42.000Z,26.1
2023-07-20T15:05:56.000Z,26.1
2023-07-20T15:07:09.000Z,26.1
2023-07-20T15:08:23.000Z,26.1
2023-07-20T15:09:38.000Z,26.1
2023-07-20T15:10:52.000Z,26.2
2023-07-20T15:12:06.000Z,26.2
2023-07-20T15:13:20.000Z,26.2
2023-07-20T15:14:35.000Z,26.2
2023-07-20T15:15:49.292Z,26.3
2023-07-20T15:17:03.531Z,26.3
2023-07-20T15:18:17.000Z,26.3
2023-07-20T15:19:32.008Z,26.3
2023-07-20T15:20:46.000Z,26.3
2023-07-20T15:22:00.000Z,26.4
2023-07-20T15:23:14.740Z,26.4
2023-07-20T15:24:27.000Z,26.4
2023-07-20T15:25:42.217Z,26.4
2023-07-20T15:26:56.000Z,26.5
2023-07-20T15:28:10.695Z,26.5
2023-07-20T15:29:24.000Z,26.5
2023-07-20T15:30:39.000Z,26.5
2023-07-20T15:31:53.410Z,26.5
2023-07-20T15:33:07.649Z,26.5
2023-07-20T15:34:21.887Z,26.5
2023-07-20T15:35:36.000Z,26.6
2023-07-20T15:36:50.365Z,26.6
2023-07-20T15:38:04.604Z,26.6
2023-07-20T15:39:17.846Z,26.6
2023-07-20T15:40:32.097Z,26.6
2023-07-20T15:41:46.336Z,26.6
2023-07-20T15:43:00.575Z,26.6
2023-07-20T15:44:14.813Z,26.6
2023-07-20T15:45:29.052Z,26.6
2023-07-20T15:46:43.290Z,26.6
2023-07-20T15:47:57.529Z,26.6
2023-07-20T15:49:11.768Z,26.6
2023-07-20T15:50:26.006Z,26.6
2023-07-20T15:51:40.245Z,26.6
2023-07-20T15:52:54.483Z,26.5
2023-07-20T15:54:08.722Z,26.5
2023-07-20T15:55:21.976Z,26.5
2023-07-20T15:56:36.215Z,26.5
2023-07-20T15:57:50.453Z,26.5
2023-07-20T15:59:04.692Z,26.5
2023-07-20T16:00:18.931Z,26.5
2023-07-20T16:01:33.169Z,26.5
2023-07-20T16:02:47.000Z,26.5
2023-07-20T16:04:01.646Z,26.5
2023-07-20T16:05:15.000Z,26.5
2023-07-20T16:06:30.123Z,26.4
2023-07-20T16:07:44.362Z,26.4
2023-07-20T16:08:58.600Z,26.4
2023-07-20T16:10:12.839Z,26.5
2023-07-20T16:11:26.094Z,26.4
2023-07-20T16:12:40.000Z,26.4
2023-07-20T16:13:54.000Z,26.4
2023-07-20T16:15:08.810Z,26.4
2023-07-20T16:16:23.049Z,26.4
2023-07-20T16:17:37.287Z,26.4
2023-07-20T16:18:51.526Z,26.4
2023-07-20T16:20:05.000Z,26.4
2023-07-20T16:21:20.003Z,26.4
2023-07-20T16:22:34.000Z,26.4
2023-07-20T16:23:48.480Z,26.4
2023-07-20T16:25:02.719Z,26.4
2023-07-20T16:26:16.958Z,26.4
2023-07-20T16:27:30.212Z,26.4
2023-07-20T16:28:44.451Z,26.4
2023-07-20T16:29:58.689Z,26.4
2023-07-20T16:31:12.928Z,26.4
2023-07-20T16:32:27.167Z,26.4
2023-07-20T16:33:41.405Z,26.4
2023-07-20T16:34:55.000Z,26.4
2023-07-20T16:36:09.882Z,26.4
2023-07-20T16:37:24.121Z,26.4
2023-07-20T16:38:38.360Z,26.4
2023-07-20T16:39:52.598Z,26.4